sensor_id;sensor_type;location;lat;lon;timestamp;pressure;altitude;pressure_sealevel;temperature;humidity
82249;BME280;71851;49.092;18.918;2023-08-08T00:02:26;97014.75;;;13.95;72.62
82249;BME280;71851;49.092;18.918;2023-08-08T00:05:27;96996.63;;;14.05;73.10
82249;BME280;71851;49.092;18.918;2023-08-08T00:08:28;97007.78;;;14.07;73.30
82249;BME280;71851;49.092;18.918;2023-08-08T00:11:28;97013.88;;;14.14;75.76
82249;BME280;71851;49.092;18.918;2023-08-08T00:14:28;97016.91;;;14.18;77.17
82249;BME280;71851;49.092;18.918;2023-08-08T00:17:29;97010.03;;;14.10;77.14
82249;BME280;71851;49.092;18.918;2023-08-08T00:20:29;97008.41;;;14.09;72.69
82249;BME280;71851;49.092;18.918;2023-08-08T00:23:30;97006.34;;;14.11;73.43
82249;BME280;71851;49.092;18.918;2023-08-08T00:26:30;97011.00;;;14.16;72.88
82249;BME280;71851;49.092;18.918;2023-08-08T00:29:30;97015.31;;;14.10;73.65
82249;BME280;71851;49.092;18.918;2023-08-08T00:32:32;97013.06;;;14.07;71.46
82249;BME280;71851;49.092;18.918;2023-08-08T00:35:33;97007.84;;;14.01;70.97
82249;BME280;71851;49.092;18.918;2023-08-08T00:38:33;97026.47;;;14.06;71.52
82249;BME280;71851;49.092;18.918;2023-08-08T00:41:33;97025.06;;;14.03;71.13
82249;BME280;71851;49.092;18.918;2023-08-08T00:44:34;97040.50;;;14.06;73.72
82249;BME280;71851;49.092;18.918;2023-08-08T00:47:34;97034.19;;;14.07;72.37
82249;BME280;71851;49.092;18.918;2023-08-08T00:50:36;97038.06;;;14.05;70.83
82249;BME280;71851;49.092;18.918;2023-08-08T00:53:37;97030.75;;;14.07;71.13
82249;BME280;71851;49.092;18.918;2023-08-08T00:56:38;97039.47;;;14.07;71.58
82249;BME280;71851;49.092;18.918;2023-08-08T00:59:38;97022.78;;;14.13;71.49
82249;BME280;71851;49.092;18.918;2023-08-08T01:02:39;97020.75;;;14.15;72.54
82249;BME280;71851;49.092;18.918;2023-08-08T01:05:47;97032.38;;;14.08;72.19
82249;BME280;71851;49.092;18.918;2023-08-08T01:08:55;97016.38;;;13.96;72.17
82249;BME280;71851;49.092;18.918;2023-08-08T01:11:59;97015.56;;;13.89;70.07
82249;BME280;71851;49.092;18.918;2023-08-08T01:15:01;97007.94;;;13.68;71.87
82249;BME280;71851;49.092;18.918;2023-08-08T01:18:06;97020.31;;;13.68;73.77
82249;BME280;71851;49.092;18.918;2023-08-08T01:21:08;97033.25;;;13.76;73.95
82249;BME280;71851;49.092;18.918;2023-08-08T01:24:20;97040.34;;;13.82;71.44
82249;BME280;71851;49.092;18.918;2023-08-08T01:27:21;97036.91;;;13.81;70.44
82249;BME280;71851;49.092;18.918;2023-08-08T01:30:22;97031.44;;;13.76;71.36
82249;BME280;71851;49.092;18.918;2023-08-08T01:33:22;97038.16;;;13.79;70.72
82249;BME280;71851;49.092;18.918;2023-08-08T01:36:29;97037.72;;;13.88;71.73
82249;BME280;71851;49.092;18.918;2023-08-08T01:39:31;97046.44;;;13.89;72.77
82249;BME280;71851;49.092;18.918;2023-08-08T01:42:33;97053.53;;;13.95;72.72
82249;BME280;71851;49.092;18.918;2023-08-08T01:45:35;97048.47;;;13.87;71.13
82249;BME280;71851;49.092;18.918;2023-08-08T01:48:36;97058.59;;;13.96;69.48
82249;BME280;71851;49.092;18.918;2023-08-08T01:51:37;97054.13;;;13.97;67.92
82249;BME280;71851;49.092;18.918;2023-08-08T01:54:37;97055.94;;;13.96;68.86
82249;BME280;71851;49.092;18.918;2023-08-08T01:57:38;97060.78;;;13.99;69.31
82249;BME280;71851;49.092;18.918;2023-08-08T02:00:39;97058.38;;;13.98;70.80
82249;BME280;71851;49.092;18.918;2023-08-08T02:03:41;97065.69;;;13.96;70.51
82249;BME280;71851;49.092;18.918;2023-08-08T02:06:41;97063.47;;;13.93;72.50
82249;BME280;71851;49.092;18.918;2023-08-08T02:09:42;97066.72;;;13.88;73.12
82249;BME280;71851;49.092;18.918;2023-08-08T02:12:42;97078.47;;;13.92;72.56
82249;BME280;71851;49.092;18.918;2023-08-08T02:15:44;97076.44;;;13.94;73.36
82249;BME280;71851;49.092;18.918;2023-08-08T02:18:44;97074.84;;;13.87;72.05
82249;BME280;71851;49.092;18.918;2023-08-08T02:21:45;97075.25;;;13.90;71.87
82249;BME280;71851;49.092;18.918;2023-08-08T02:24:45;97085.59;;;13.92;72.87
82249;BME280;71851;49.092;18.918;2023-08-08T02:27:46;97084.38;;;13.88;72.44
82249;BME280;71851;49.092;18.918;2023-08-08T02:30:46;97084.78;;;13.85;71.68
82249;BME280;71851;49.092;18.918;2023-08-08T02:33:48;97091.06;;;13.84;71.56
82249;BME280;71851;49.092;18.918;2023-08-08T02:36:50;97098.00;;;13.85;71.95
82249;BME280;71851;49.092;18.918;2023-08-08T02:39:50;97101.22;;;13.87;73.72
82249;BME280;71851;49.092;18.918;2023-08-08T02:42:51;97094.31;;;13.86;74.57
82249;BME280;71851;49.092;18.918;2023-08-08T02:45:51;97101.03;;;13.82;75.45
82249;BME280;71851;49.092;18.918;2023-08-08T02:48:52;97097.78;;;13.73;75.37
82249;BME280;71851;49.092;18.918;2023-08-08T02:51:52;97092.31;;;13.68;74.77
82249;BME280;71851;49.092;18.918;2023-08-08T02:54:53;97100.66;;;13.58;74.87
82249;BME280;71851;49.092;18.918;2023-08-08T02:57:54;97099.63;;;13.46;75.81
82249;BME280;71851;49.092;18.918;2023-08-08T03:00:55;97101.66;;;13.31;74.14
82249;BME280;71851;49.092;18.918;2023-08-08T03:03:56;97114.81;;;13.18;72.36
82249;BME280;71851;49.092;18.918;2023-08-08T03:06:58;97117.66;;;13.10;72.81
82249;BME280;71851;49.092;18.918;2023-08-08T03:10:02;97132.78;;;13.02;73.74
82249;BME280;71851;49.092;18.918;2023-08-08T03:13:06;97128.69;;;12.93;72.90
82249;BME280;71851;49.092;18.918;2023-08-08T03:16:07;97140.47;;;12.97;73.85
82249;BME280;71851;49.092;18.918;2023-08-08T03:19:07;97134.19;;;12.91;73.48
82249;BME280;71851;49.092;18.918;2023-08-08T03:22:08;97140.06;;;12.93;75.83
82249;BME280;71851;49.092;18.918;2023-08-08T03:25:11;97146.94;;;12.88;75.65
82249;BME280;71851;49.092;18.918;2023-08-08T03:28:12;97147.97;;;12.93;74.01
82249;BME280;71851;49.092;18.918;2023-08-08T03:31:12;97152.66;;;12.98;73.51
82249;BME280;71851;49.092;18.918;2023-08-08T03:34:15;97151.78;;;12.91;73.61
82249;BME280;71851;49.092;18.918;2023-08-08T03:37:16;97159.25;;;12.74;75.37
82249;BME280;71851;49.092;18.918;2023-08-08T03:40:17;97153.59;;;12.70;76.27
82249;BME280;71851;49.092;18.918;2023-08-08T03:43:18;97152.09;;;12.61;76.53
82249;BME280;71851;49.092;18.918;2023-08-08T03:46:18;97154.28;;;12.51;77.22
82249;BME280;71851;49.092;18.918;2023-08-08T03:49:18;97155.44;;;12.36;79.80
82249;BME280;71851;49.092;18.918;2023-08-08T03:52:19;97151.47;;;12.19;80.20
82249;BME280;71851;49.092;18.918;2023-08-08T03:55:19;97155.81;;;11.98;80.25
82249;BME280;71851;49.092;18.918;2023-08-08T03:58:20;97159.19;;;11.86;80.94
82249;BME280;71851;49.092;18.918;2023-08-08T04:01:21;97160.25;;;11.70;81.45
82249;BME280;71851;49.092;18.918;2023-08-08T04:04:21;97159.75;;;11.60;82.64
82249;BME280;71851;49.092;18.918;2023-08-08T04:07:23;97169.41;;;11.53;82.70
82249;BME280;71851;49.092;18.918;2023-08-08T04:10:23;97171.72;;;11.42;81.85
82249;BME280;71851;49.092;18.918;2023-08-08T04:13:23;97181.19;;;11.36;82.24
82249;BME280;71851;49.092;18.918;2023-08-08T04:16:24;97181.94;;;11.30;83.01
82249;BME280;71851;49.092;18.918;2023-08-08T04:19:25;97195.63;;;11.26;82.82
82249;BME280;71851;49.092;18.918;2023-08-08T04:22:25;97201.84;;;11.25;82.57
82249;BME280;71851;49.092;18.918;2023-08-08T04:25:26;97208.94;;;11.24;82.96
82249;BME280;71851;49.092;18.918;2023-08-08T04:28:27;97204.13;;;11.28;82.46
82249;BME280;71851;49.092;18.918;2023-08-08T04:31:27;97210.44;;;11.33;82.20
82249;BME280;71851;49.092;18.918;2023-08-08T04:34:29;97216.63;;;11.47;82.29
82249;BME280;71851;49.092;18.918;2023-08-08T04:37:29;97214.97;;;11.81;81.30
82249;BME280;71851;49.092;18.918;2023-08-08T04:40:30;97213.78;;;12.12;79.17
82249;BME280;71851;49.092;18.918;2023-08-08T04:43:30;97220.91;;;12.18;79.07
82249;BME280;71851;49.092;18.918;2023-08-08T04:46:33;97230.66;;;12.24;78.92
82249;BME280;71851;49.092;18.918;2023-08-08T04:49:33;97226.59;;;12.21;79.14
82249;BME280;71851;49.092;18.918;2023-08-08T04:52:34;97241.59;;;12.27;78.19
82249;BME280;71851;49.092;18.918;2023-08-08T04:55:34;97236.19;;;12.35;78.36
82249;BME280;71851;49.092;18.918;2023-08-08T04:58:35;97242.34;;;12.42;78.20
82249;BME280;71851;49.092;18.918;2023-08-08T05:01:35;97243.38;;;12.48;78.66
82249;BME280;71851;49.092;18.918;2023-08-08T05:04:38;97239.16;;;12.53;78.39
82249;BME280;71851;49.092;18.918;2023-08-08T05:07:38;97237.50;;;12.46;78.48
82249;BME280;71851;49.092;18.918;2023-08-08T05:10:39;97239.44;;;12.37;79.07
82249;BME280;71851;49.092;18.918;2023-08-08T05:13:39;97239.66;;;12.36;80.17
82249;BME280;71851;49.092;18.918;2023-08-08T05:16:40;97254.09;;;12.46;79.96
82249;BME280;71851;49.092;18.918;2023-08-08T05:19:41;97266.72;;;12.57;79.64
82249;BME280;71851;49.092;18.918;2023-08-08T05:22:41;97261.00;;;12.88;78.90
82249;BME280;71851;49.092;18.918;2023-08-08T05:25:42;97255.44;;;13.04;78.65
82249;BME280;71851;49.092;18.918;2023-08-08T05:28:42;97255.44;;;13.11;77.40
82249;BME280;71851;49.092;18.918;2023-08-08T05:31:42;97247.72;;;13.96;74.30
82249;BME280;71851;49.092;18.918;2023-08-08T05:34:43;97246.69;;;14.69;71.49
82249;BME280;71851;49.092;18.918;2023-08-08T05:37:43;97243.97;;;14.88;68.06
82249;BME280;71851;49.092;18.918;2023-08-08T05:40:44;97254.56;;;16.26;64.55
82249;BME280;71851;49.092;18.918;2023-08-08T05:43:44;97246.25;;;19.81;53.33
82249;BME280;71851;49.092;18.918;2023-08-08T05:46:45;97238.88;;;27.21;33.96
82249;BME280;71851;49.092;18.918;2023-08-08T05:49:45;97238.41;;;28.35;30.75
82249;BME280;71851;49.092;18.918;2023-08-08T05:52:45;97236.88;;;31.73;25.94
82249;BME280;71851;49.092;18.918;2023-08-08T05:55:46;97225.34;;;31.11;23.29
82249;BME280;71851;49.092;18.918;2023-08-08T05:58:46;97220.91;;;31.15;23.50
82249;BME280;71851;49.092;18.918;2023-08-08T06:01:47;97219.59;;;30.07;24.45
82249;BME280;71851;49.092;18.918;2023-08-08T06:04:47;97239.22;;;25.46;32.44
82249;BME280;71851;49.092;18.918;2023-08-08T06:07:48;97246.16;;;21.30;39.97
82249;BME280;71851;49.092;18.918;2023-08-08T06:10:48;97248.41;;;20.28;44.30
82249;BME280;71851;49.092;18.918;2023-08-08T06:13:49;97253.16;;;19.65;45.50
82249;BME280;71851;49.092;18.918;2023-08-08T06:16:49;97256.00;;;19.47;48.12
82249;BME280;71851;49.092;18.918;2023-08-08T06:19:50;97236.06;;;22.12;42.69
82249;BME280;71851;49.092;18.918;2023-08-08T06:22:51;97247.63;;;30.47;27.64
82249;BME280;71851;49.092;18.918;2023-08-08T06:25:52;97246.41;;;37.90;17.44
82249;BME280;71851;49.092;18.918;2023-08-08T06:28:52;97238.69;;;32.54;22.60
82249;BME280;71851;49.092;18.918;2023-08-08T06:31:53;97256.81;;;33.43;21.86
82249;BME280;71851;49.092;18.918;2023-08-08T06:34:53;97253.72;;;37.36;16.69
82249;BME280;71851;49.092;18.918;2023-08-08T06:37:55;97257.81;;;35.52;19.70
82249;BME280;71851;49.092;18.918;2023-08-08T06:40:55;97244.41;;;40.99;13.24
82249;BME280;71851;49.092;18.918;2023-08-08T06:43:56;97254.84;;;42.28;12.48
82249;BME280;71851;49.092;18.918;2023-08-08T06:46:57;97247.06;;;37.84;14.66
82249;BME280;71851;49.092;18.918;2023-08-08T06:49:57;97232.59;;;42.83;11.44
82249;BME280;71851;49.092;18.918;2023-08-08T06:52:57;97234.06;;;40.86;13.17
82249;BME280;71851;49.092;18.918;2023-08-08T06:55:58;97233.19;;;45.66;9.29
82249;BME280;71851;49.092;18.918;2023-08-08T06:58:58;97210.69;;;47.38;8.59
82249;BME280;71851;49.092;18.918;2023-08-08T07:01:59;97215.88;;;38.07;15.90
82249;BME280;71851;49.092;18.918;2023-08-08T07:04:59;97228.69;;;43.26;9.89
82249;BME280;71851;49.092;18.918;2023-08-08T07:07:59;97226.66;;;46.80;7.83
82249;BME280;71851;49.092;18.918;2023-08-08T07:11:00;97216.66;;;48.02;6.71
82249;BME280;71851;49.092;18.918;2023-08-08T07:14:00;97225.09;;;49.58;5.21
82249;BME280;71851;49.092;18.918;2023-08-08T07:17:04;97211.28;;;50.78;5.36
82249;BME280;71851;49.092;18.918;2023-08-08T07:20:05;97216.56;;;50.51;4.82
82249;BME280;71851;49.092;18.918;2023-08-08T07:23:06;97214.72;;;52.35;3.74
82249;BME280;71851;49.092;18.918;2023-08-08T07:26:06;97190.63;;;44.08;8.40
82249;BME280;71851;49.092;18.918;2023-08-08T07:29:07;97207.09;;;38.78;12.15
82249;BME280;71851;49.092;18.918;2023-08-08T07:32:07;97214.72;;;47.79;7.11
82249;BME280;71851;49.092;18.918;2023-08-08T07:35:08;97214.13;;;45.20;8.14
82249;BME280;71851;49.092;18.918;2023-08-08T07:38:08;97219.38;;;44.35;8.00
82249;BME280;71851;49.092;18.918;2023-08-08T07:41:09;97222.91;;;48.65;6.03
82249;BME280;71851;49.092;18.918;2023-08-08T07:44:10;97203.56;;;41.59;9.63
82249;BME280;71851;49.092;18.918;2023-08-08T07:47:10;97208.63;;;39.21;13.12
82249;BME280;71851;49.092;18.918;2023-08-08T07:50:11;97210.09;;;39.38;13.68
82249;BME280;71851;49.092;18.918;2023-08-08T07:53:11;97225.84;;;39.67;12.40
82249;BME280;71851;49.092;18.918;2023-08-08T07:56:12;97205.94;;;38.79;13.18
82249;BME280;71851;49.092;18.918;2023-08-08T07:59:12;97204.31;;;37.64;14.79
82249;BME280;71851;49.092;18.918;2023-08-08T08:02:13;97205.09;;;34.79;18.09
82249;BME280;71851;49.092;18.918;2023-08-08T08:05:13;97206.88;;;31.78;20.64
82249;BME280;71851;49.092;18.918;2023-08-08T08:08:14;97215.31;;;31.68;21.52
82249;BME280;71851;49.092;18.918;2023-08-08T08:11:14;97207.16;;;29.84;24.12
82249;BME280;71851;49.092;18.918;2023-08-08T08:14:16;97211.78;;;30.72;22.22
82249;BME280;71851;49.092;18.918;2023-08-08T08:17:16;97225.75;;;32.00;19.08
82249;BME280;71851;49.092;18.918;2023-08-08T08:20:17;97220.34;;;32.98;18.89
82249;BME280;71851;49.092;18.918;2023-08-08T08:23:18;97212.28;;;32.55;19.32
82249;BME280;71851;49.092;18.918;2023-08-08T08:26:18;97211.66;;;31.72;19.51
82249;BME280;71851;49.092;18.918;2023-08-08T08:29:18;97218.88;;;32.28;19.80
82249;BME280;71851;49.092;18.918;2023-08-08T08:32:19;97220.88;;;33.79;19.12
82249;BME280;71851;49.092;18.918;2023-08-08T08:35:19;97227.88;;;37.33;15.38
82249;BME280;71851;49.092;18.918;2023-08-08T08:38:20;97206.16;;;39.39;11.28
82249;BME280;71851;49.092;18.918;2023-08-08T08:41:27;97203.66;;;35.30;14.73
82249;BME280;71851;49.092;18.918;2023-08-08T08:44:29;97213.44;;;30.59;20.30
82249;BME280;71851;49.092;18.918;2023-08-08T08:47:31;97207.13;;;27.41;26.02
82249;BME280;71851;49.092;18.918;2023-08-08T08:50:33;97204.72;;;26.06;26.88
82249;BME280;71851;49.092;18.918;2023-08-08T08:53:34;97221.44;;;23.90;29.58
82249;BME280;71851;49.092;18.918;2023-08-08T08:56:39;97220.97;;;22.64;32.28
82249;BME280;71851;49.092;18.918;2023-08-08T08:59:39;97213.91;;;23.05;33.62
82249;BME280;71851;49.092;18.918;2023-08-08T09:02:40;97212.81;;;23.63;31.83
82249;BME280;71851;49.092;18.918;2023-08-08T09:05:41;97217.34;;;23.52;33.31
82249;BME280;71851;49.092;18.918;2023-08-08T09:08:42;97210.69;;;23.03;34.43
82249;BME280;71851;49.092;18.918;2023-08-08T09:11:48;97210.00;;;22.71;35.52
82249;BME280;71851;49.092;18.918;2023-08-08T09:14:54;97199.34;;;22.39;35.45
82249;BME280;71851;49.092;18.918;2023-08-08T09:17:55;97214.19;;;22.20;37.09
82249;BME280;71851;49.092;18.918;2023-08-08T09:20:55;97206.47;;;21.65;38.40
82249;BME280;71851;49.092;18.918;2023-08-08T09:23:57;97204.41;;;21.02;38.95
82249;BME280;71851;49.092;18.918;2023-08-08T09:26:58;97211.50;;;20.37;40.38
82249;BME280;71851;49.092;18.918;2023-08-08T09:29:58;97224.22;;;20.18;41.06
82249;BME280;71851;49.092;18.918;2023-08-08T09:33:02;97229.28;;;20.31;41.38
82249;BME280;71851;49.092;18.918;2023-08-08T09:36:03;97228.56;;;21.12;39.94
82249;BME280;71851;49.092;18.918;2023-08-08T09:39:04;97219.53;;;22.20;37.03
82249;BME280;71851;49.092;18.918;2023-08-08T09:42:06;97218.22;;;23.93;33.66
82249;BME280;71851;49.092;18.918;2023-08-08T09:45:08;97225.66;;;26.09;30.56
82249;BME280;71851;49.092;18.918;2023-08-08T09:48:09;97204.13;;;28.95;24.39
82249;BME280;71851;49.092;18.918;2023-08-08T09:51:10;97212.03;;;27.76;25.74
82249;BME280;71851;49.092;18.918;2023-08-08T09:54:11;97201.28;;;26.87;26.86
82249;BME280;71851;49.092;18.918;2023-08-08T09:57:12;97208.38;;;26.78;28.23
82249;BME280;71851;49.092;18.918;2023-08-08T10:00:13;97189.03;;;28.16;24.66
82249;BME280;71851;49.092;18.918;2023-08-08T10:03:18;97196.81;;;26.49;26.57
82249;BME280;71851;49.092;18.918;2023-08-08T10:06:18;97194.44;;;25.21;28.90
82249;BME280;71851;49.092;18.918;2023-08-08T10:09:19;97192.13;;;27.35;26.05
82249;BME280;71851;49.092;18.918;2023-08-08T10:12:20;97180.19;;;25.20;27.20
82249;BME280;71851;49.092;18.918;2023-08-08T10:15:26;97199.06;;;22.77;30.09
82249;BME280;71851;49.092;18.918;2023-08-08T10:18:27;97180.97;;;24.32;30.20
82249;BME280;71851;49.092;18.918;2023-08-08T10:21:27;97184.41;;;23.87;31.03
82249;BME280;71851;49.092;18.918;2023-08-08T10:24:35;97182.03;;;23.91;30.55
82249;BME280;71851;49.092;18.918;2023-08-08T10:27:36;97181.69;;;23.42;29.79
82249;BME280;71851;49.092;18.918;2023-08-08T10:31:16;97172.91;;;24.32;30.38
82249;BME280;71851;49.092;18.918;2023-08-08T10:34:20;97174.28;;;24.09;29.28
82249;BME280;71851;49.092;18.918;2023-08-08T10:37:21;97173.69;;;23.72;31.07
82249;BME280;71851;49.092;18.918;2023-08-08T10:40:23;97173.28;;;27.86;26.22
82249;BME280;71851;49.092;18.918;2023-08-08T10:43:28;97169.19;;;26.38;27.78
82249;BME280;71851;49.092;18.918;2023-08-08T10:46:32;97174.84;;;27.13;25.42
82249;BME280;71851;49.092;18.918;2023-08-08T10:49:34;97183.56;;;26.24;26.46
82249;BME280;71851;49.092;18.918;2023-08-08T10:52:49;97178.47;;;25.83;28.03
82249;BME280;71851;49.092;18.918;2023-08-08T10:56:18;97174.28;;;25.72;27.14
82249;BME280;71851;49.092;18.918;2023-08-08T10:59:23;97172.19;;;25.98;28.05
82249;BME280;71851;49.092;18.918;2023-08-08T11:02:24;97171.88;;;26.04;29.16
82249;BME280;71851;49.092;18.918;2023-08-08T11:05:27;97172.13;;;28.43;25.97
82249;BME280;71851;49.092;18.918;2023-08-08T11:08:29;97178.94;;;27.71;23.62
82249;BME280;71851;49.092;18.918;2023-08-08T11:11:36;97173.63;;;26.81;26.77
82249;BME280;71851;49.092;18.918;2023-08-08T11:14:37;97165.41;;;27.15;24.82
82249;BME280;71851;49.092;18.918;2023-08-08T11:17:37;97171.66;;;26.87;27.01
82249;BME280;71851;49.092;18.918;2023-08-08T11:20:38;97174.53;;;26.43;26.60
82249;BME280;71851;49.092;18.918;2023-08-08T11:23:38;97176.66;;;25.79;25.83
82249;BME280;71851;49.092;18.918;2023-08-08T11:26:41;97168.13;;;26.39;25.13
82249;BME280;71851;49.092;18.918;2023-08-08T11:29:50;97176.53;;;26.28;27.08
82249;BME280;71851;49.092;18.918;2023-08-08T11:32:51;97180.19;;;26.94;27.63
82249;BME280;71851;49.092;18.918;2023-08-08T11:35:52;97179.66;;;29.55;24.31
82249;BME280;71851;49.092;18.918;2023-08-08T11:38:53;97184.50;;;29.30;22.18
82249;BME280;71851;49.092;18.918;2023-08-08T11:41:54;97172.59;;;28.64;24.36
82249;BME280;71851;49.092;18.918;2023-08-08T11:44:55;97186.00;;;27.86;25.35
82249;BME280;71851;49.092;18.918;2023-08-08T11:47:55;97187.44;;;28.47;23.98
82249;BME280;71851;49.092;18.918;2023-08-08T11:50:56;97178.47;;;27.83;25.52
82249;BME280;71851;49.092;18.918;2023-08-08T11:53:59;97177.06;;;27.06;26.88
82249;BME280;71851;49.092;18.918;2023-08-08T11:57:01;97180.03;;;25.56;28.88
82249;BME280;71851;49.092;18.918;2023-08-08T12:03:13;97203.28;;;23.25;32.22
82249;BME280;71851;49.092;18.918;2023-08-08T12:06:18;97203.56;;;22.30;33.85
82249;BME280;71851;49.092;18.918;2023-08-08T12:09:18;97203.31;;;21.47;36.22
82249;BME280;71851;49.092;18.918;2023-08-08T12:12:19;97201.38;;;20.94;35.77
82249;BME280;71851;49.092;18.918;2023-08-08T12:15:20;97205.81;;;20.88;36.95
82249;BME280;71851;49.092;18.918;2023-08-08T12:18:20;97209.94;;;20.96;36.50
82249;BME280;71851;49.092;18.918;2023-08-08T12:21:20;97202.47;;;21.68;36.17
82249;BME280;71851;49.092;18.918;2023-08-08T12:24:21;97214.75;;;22.22;37.01
82249;BME280;71851;49.092;18.918;2023-08-08T12:27:22;97208.47;;;22.43;36.38
82249;BME280;71851;49.092;18.918;2023-08-08T12:30:22;97200.59;;;21.95;36.06
82249;BME280;71851;49.092;18.918;2023-08-08T12:33:22;97202.13;;;22.18;36.39
82249;BME280;71851;49.092;18.918;2023-08-08T12:36:23;97201.03;;;22.92;35.31
82249;BME280;71851;49.092;18.918;2023-08-08T12:39:23;97205.88;;;21.58;37.22
82249;BME280;71851;49.092;18.918;2023-08-08T12:42:24;97204.53;;;22.14;37.19
82249;BME280;71851;49.092;18.918;2023-08-08T12:45:24;97206.97;;;22.21;36.20
82249;BME280;71851;49.092;18.918;2023-08-08T12:48:25;97201.63;;;21.89;37.50
82249;BME280;71851;49.092;18.918;2023-08-08T12:51:25;97200.75;;;21.30;38.68
82249;BME280;71851;49.092;18.918;2023-08-08T12:54:26;97196.97;;;20.66;39.21
82249;BME280;71851;49.092;18.918;2023-08-08T12:57:26;97193.56;;;20.16;40.44
82249;BME280;71851;49.092;18.918;2023-08-08T13:00:26;97196.69;;;19.96;41.52
82249;BME280;71851;49.092;18.918;2023-08-08T13:03:27;97200.09;;;19.92;40.67
82249;BME280;71851;49.092;18.918;2023-08-08T13:06:28;97189.00;;;20.28;40.75
82249;BME280;71851;49.092;18.918;2023-08-08T13:09:28;97179.50;;;20.54;40.79
82249;BME280;71851;49.092;18.918;2023-08-08T13:12:28;97184.75;;;20.70;40.19
82249;BME280;71851;49.092;18.918;2023-08-08T13:15:29;97179.69;;;20.90;39.25
82249;BME280;71851;49.092;18.918;2023-08-08T13:18:29;97177.31;;;20.72;39.13
82249;BME280;71851;49.092;18.918;2023-08-08T13:21:30;97181.50;;;21.28;38.74
82249;BME280;71851;49.092;18.918;2023-08-08T13:24:31;97176.88;;;20.59;39.72
82249;BME280;71851;49.092;18.918;2023-08-08T13:27:31;97171.94;;;19.96;40.36
82249;BME280;71851;49.092;18.918;2023-08-08T13:30:33;97175.72;;;20.00;40.06
82249;BME280;71851;49.092;18.918;2023-08-08T13:33:34;97164.56;;;21.71;37.76
82249;BME280;71851;49.092;18.918;2023-08-08T13:36:34;97159.41;;;21.86;38.29
82249;BME280;71851;49.092;18.918;2023-08-08T13:39:35;97148.94;;;22.21;36.83
82249;BME280;71851;49.092;18.918;2023-08-08T13:42:35;97157.75;;;21.85;37.46
82249;BME280;71851;49.092;18.918;2023-08-08T13:45:36;97142.25;;;21.55;37.46
82249;BME280;71851;49.092;18.918;2023-08-08T13:48:36;97146.19;;;21.21;38.14
82249;BME280;71851;49.092;18.918;2023-08-08T13:51:37;97147.47;;;20.97;38.64
82249;BME280;71851;49.092;18.918;2023-08-08T13:54:37;97146.31;;;20.66;38.80
82249;BME280;71851;49.092;18.918;2023-08-08T13:57:38;97133.72;;;20.83;39.56
82249;BME280;71851;49.092;18.918;2023-08-08T14:00:38;97134.03;;;21.08;38.15
82249;BME280;71851;49.092;18.918;2023-08-08T14:03:38;97143.19;;;20.53;37.54
82249;BME280;71851;49.092;18.918;2023-08-08T14:06:39;97141.47;;;20.63;37.70
82249;BME280;71851;49.092;18.918;2023-08-08T14:09:40;97139.63;;;20.25;38.86
82249;BME280;71851;49.092;18.918;2023-08-08T14:12:40;97146.38;;;20.50;40.69
82249;BME280;71851;49.092;18.918;2023-08-08T14:15:41;97152.72;;;19.77;43.17
82249;BME280;71851;49.092;18.918;2023-08-08T14:18:42;97150.59;;;19.63;42.80
82249;BME280;71851;49.092;18.918;2023-08-08T14:21:42;97147.63;;;20.09;42.88
82249;BME280;71851;49.092;18.918;2023-08-08T14:24:43;97144.16;;;20.25;41.27
82249;BME280;71851;49.092;18.918;2023-08-08T14:27:44;97135.31;;;20.41;41.88
82249;BME280;71851;49.092;18.918;2023-08-08T14:30:44;97140.44;;;19.93;42.21
82249;BME280;71851;49.092;18.918;2023-08-08T14:33:45;97153.09;;;20.36;41.03
82249;BME280;71851;49.092;18.918;2023-08-08T14:36:45;97164.72;;;20.13;40.50
82249;BME280;71851;49.092;18.918;2023-08-08T14:39:45;97157.41;;;20.03;40.44
82249;BME280;71851;49.092;18.918;2023-08-08T14:42:46;97164.09;;;19.89;41.52
82249;BME280;71851;49.092;18.918;2023-08-08T14:45:46;97166.44;;;19.86;42.46
82249;BME280;71851;49.092;18.918;2023-08-08T14:48:47;97167.41;;;19.80;42.46
82249;BME280;71851;49.092;18.918;2023-08-08T14:51:47;97179.53;;;19.03;45.06
82249;BME280;71851;49.092;18.918;2023-08-08T14:54:48;97178.81;;;18.56;46.39
82249;BME280;71851;49.092;18.918;2023-08-08T14:57:48;97176.06;;;18.51;46.32
82249;BME280;71851;49.092;18.918;2023-08-08T15:00:49;97173.09;;;18.47;46.78
82249;BME280;71851;49.092;18.918;2023-08-08T15:03:49;97184.47;;;18.36;46.94
82249;BME280;71851;49.092;18.918;2023-08-08T15:06:50;97179.97;;;18.02;48.85
82249;BME280;71851;49.092;18.918;2023-08-08T15:09:50;97201.63;;;17.76;48.10
82249;BME280;71851;49.092;18.918;2023-08-08T15:12:51;97203.91;;;17.61;51.18
82249;BME280;71851;49.092;18.918;2023-08-08T15:15:52;97230.63;;;17.30;55.07
82249;BME280;71851;49.092;18.918;2023-08-08T15:18:52;97228.78;;;17.00;55.81
82249;BME280;71851;49.092;18.918;2023-08-08T15:21:53;97228.31;;;17.03;57.69
82249;BME280;71851;49.092;18.918;2023-08-08T15:24:54;97221.78;;;17.95;61.57
82249;BME280;71851;49.092;18.918;2023-08-08T15:27:54;97203.19;;;18.18;61.24
82249;BME280;71851;49.092;18.918;2023-08-08T15:30:55;97203.44;;;18.05;60.98
82249;BME280;71851;49.092;18.918;2023-08-08T15:33:55;97214.06;;;18.05;64.73
82249;BME280;71851;49.092;18.918;2023-08-08T15:36:56;97204.25;;;17.35;63.37
82249;BME280;71851;49.092;18.918;2023-08-08T15:39:58;97197.13;;;17.65;62.27
82249;BME280;71851;49.092;18.918;2023-08-08T15:42:59;97192.63;;;17.18;59.20
82249;BME280;71851;49.092;18.918;2023-08-08T15:45:59;97195.91;;;16.83;59.80
82249;BME280;71851;49.092;18.918;2023-08-08T15:49:00;97208.72;;;17.05;63.04
82249;BME280;71851;49.092;18.918;2023-08-08T15:52:00;97197.81;;;17.13;63.91